KGSP/GSP METAR and TAF weather

Enter ICAO airport designator
Station Type Date Time Source
KGSP METAR 2022/10/01 06:53 UTC NOAA

KGSP 010653Z AUTO 31008KT 280V350 10SM BKN055 OVC065 13/09 A2974 RMK AO2 SLP065 T01330094


Station Type Date Time Source
KGSP Decoded METAR 2022/10/01 06:53 UTC NOAA

GREER GREENVILLE SPARTBURG, SC, United States (KGSP) 34-53N 82-13W 286M
Oct 01, 2022 - 02:53 AM EDT / 2022.10.01 0653 UTC
Wind: from the NW (310 degrees) at 9 MPH (8 KT) (direction variable):0
Visibility: 10 mile(s):0
Sky conditions: overcast
Temperature: 55.9 F (13.3 C)
Dew Point: 48.9 F (9.4 C)
Relative Humidity: 77%
Pressure (altimeter): 29.74 in. Hg (1007 hPa)
ob: KGSP 010653Z AUTO 31008KT 280V350 10SM BKN055 OVC065 13/09 A2974 RMK AO2 SLP065 T01330094
cycle: 7

Station Type Date Time Source
KGSP TAF 2022/10/01 06:42 UTC NOAA

TAF KGSP 010540Z 0106/0206 32009KT P6SM SCT030 OVC050
TEMPO 0106/0108 5SM -RADZ BR BKN030
FM011100 31006KT P6SM SCT025 BKN035
FM011600 33007KT P6SM SCT045 BKN070

Example: see airport list